Livermore, CA

2:13 PM PDT on April 26, 2017 (GMT -0700)
275 Lee Ave | | Change Station

Elev 0 ft 37.69 °N, 121.76 °W | Updated 1 minute ago

Overcast
Overcast
62.8 °F
Feels Like 62.8 °F
N
5.8
Wind Variable Wind from NNE

Today
High -- | Low -- °F
--% Chance of Precip.
Yesterday
High -- | Low -- °F
Precip. -- in
Pressure 30.04 in
Visibility 10.0 miles
Clouds Overcast 2100 ft
Dew Point 56 °F
Humidity 78%
Rainfall 0.00 in
Snow Depth Not available.
6:17 AM 7:53 PM
New Moon, 0% visible
METAR KLVK 262053Z 25012KT 10SM OVC021 17/12 A3004 RMK AO2 SLP171 T01670122 58002
Pressure 30.04 in
Visibility 10.0 miles
Clouds Overcast 2100 ft
Dew Point 56 °F
Humidity 78%
Rainfall 0.00 in
Snow Depth Not available.
6:17 AM 7:53 PM
New Moon, 0% visible
METAR KLVK 262053Z 25012KT 10SM OVC021 17/12 A3004 RMK AO2 SLP171 T01670122 58002

Get Severe Weather Alerts

Thanks for signing up!

Be on the lookout for a verification email in your inbox.

You'll start receiving the daily forecast at 8 AM.

×

10-Day Weather Forecast

Almanac

Astronomy

Apr. 26, 2017 Rise Set
Actual Time
Civil Twilight
Nautical Twilight
Astronomical Twilight
Moon
Length of Visible Light
Length of Day
Tomorrow will be .
, % of the Moon is Illuminated

Today's Extremes

State Highs State Lows

Community

WunderPhotos

WunderBlog® & News

Nearby

Air Quality

  Air Quality AQ Index Pollutant
Not available.

Snow Depth

Station Depth Elevation

Earthquake Activity

City Distance Mag. Time & Date
Minimum magnitude displayed is 2.5.

Coastal Water Temperatures

Place Temperature

Stations

Nearby Weather Stations

Station Location Temp. Windchill Dew Point Humidity Wind Precip. Elev Updated Type
                   

Watches & Warnings

There are currently no watches in effect.